»·PEaware :: NAS241 EDDF-LOWI

NAS241 :: EDDF-LOWI

FLIGHT INFORMATION

Flight Status: Arrived
Operator: Unknown
More flights by this operator :: More flights under this callsign
Pilot: Drew L. (13237)
Aircraft: BOEING 737-800
(B738)
More flights by this aircraft type
Origin: EDDF Frankfurt/Main
Germany
Destination: LOWI Innsbruck
Austria
More flights between these airports :: More routes between these airports
Route: NOMB9F NOMBO Y161 MAH Y162 MANAL M736 TULSI TULS3A
File this flight plan on PilotEdge
Remarks:
Altitude:
(Current/Filed)
29,000ft
Speed:
(Current/Filed)
455kts
Departed: 03-Aug-17 06:41 PM
Arrived: 03-Aug-17 07:34 PM
Distance/Time
Traveled:
199nm/0:53
Distance/Time
To Go:
Arrived

Flight Plot

Page will automatically refresh every two minutes.

Flight plan parsing failed; only flown route is shown


Map Options




Map Legend


Flown Route
Filed Route
Departure Airport
Arrival Airport
Navaid (VOR, NDB)
Fix

Horizontal Profiles

Position Reports

Time Latitude Longitude Heading Altitude Ground
Speed
03-Aug-17 18:25 50.048289 8.585640 160 369ft 0kts
03-Aug-17 18:26 50.048289 8.585640 160 369ft 0kts
03-Aug-17 18:27 50.048289 8.585640 160 369ft 0kts
03-Aug-17 18:28 50.048289 8.585640 160 369ft 0kts
03-Aug-17 18:29 50.048289 8.585640 160 369ft 0kts
03-Aug-17 18:30 50.048289 8.585639 160 369ft 0kts
03-Aug-17 18:31 50.048289 8.585639 160 369ft 0kts
03-Aug-17 18:32 50.048289 8.585639 160 369ft 0kts
03-Aug-17 18:33 50.048289 8.585639 160 369ft 0kts
03-Aug-17 18:34 50.048289 8.585639 160 369ft 0kts
03-Aug-17 18:35 50.048289 8.585639 160 369ft 0kts
03-Aug-17 18:36 50.048289 8.585639 160 369ft 0kts
03-Aug-17 18:37 50.048289 8.585639 160 369ft 0kts
03-Aug-17 18:38 50.048289 8.585639 160 369ft 0kts
03-Aug-17 18:39 50.048734 8.585385 160 372ft 2kts
03-Aug-17 18:40 50.049105 8.585113 99 374ft 0kts
03-Aug-17 18:41 50.049100 8.585018 65 375ft 0kts
03-Aug-17 18:42 50.048371 8.587107 163 365ft 24kts
03-Aug-17 18:43 50.044701 8.585208 248 365ft 0kts
03-Aug-17 18:44 50.038542 8.559794 248 727ft 165kts
03-Aug-17 18:45 50.010322 8.493465 201 3428ft 232kts
03-Aug-17 18:46 49.956624 8.537771 117 6639ft 283kts
03-Aug-17 18:47 49.920845 8.652167 124 10112ft 308kts
03-Aug-17 18:48 49.876464 8.776913 125 12551ft 364kts
03-Aug-17 18:49 49.826238 8.915597 125 15978ft 383kts
03-Aug-17 18:50 49.773158 9.061124 125 18900ft 407kts
03-Aug-17 18:51 49.745672 9.173295 124 20661ft 423kts
03-Aug-17 18:54 49.563633 9.463852 156 26276ft 434kts
03-Aug-17 18:55 49.461286 9.558145 157 28897ft 433kts
03-Aug-17 18:56 49.356626 9.653066 155 29069ft 464kts
03-Aug-17 18:57 49.258768 9.792123 141 29071ft 503kts
03-Aug-17 18:58 49.160838 9.941094 142 29046ft 500kts
03-Aug-17 18:59 49.063197 10.088123 142 29042ft 496kts
03-Aug-17 19:00 48.964105 10.228480 141 29061ft 491kts
03-Aug-17 19:01 48.867698 10.364719 142 29077ft 490kts
03-Aug-17 19:02 48.772125 10.510227 138 29081ft 494kts
03-Aug-17 19:03 48.680438 10.656840 138 29079ft 494kts
03-Aug-17 19:04 48.587824 10.803748 138 29072ft 493kts
03-Aug-17 19:05 48.494201 10.953169 137 29071ft 495kts
03-Aug-17 19:06 48.399957 11.100199 137 29072ft 495kts
03-Aug-17 19:07 48.305475 11.247003 137 29076ft 495kts
03-Aug-17 19:08 48.207885 11.387183 141 28602ft 491kts
03-Aug-17 19:09 48.112818 11.515279 142 26521ft 443kts
03-Aug-17 19:10 48.025675 11.631798 142 24417ft 412kts
03-Aug-17 19:11 47.942922 11.741941 142 22445ft 414kts
03-Aug-17 19:12 47.844137 11.792371 181 18650ft 398kts
03-Aug-17 19:13 47.733754 11.789809 183 13927ft 406kts
03-Aug-17 19:14 47.647256 11.846762 133 13683ft 325kts
03-Aug-17 19:15 47.593359 11.941614 133 12471ft 297kts
03-Aug-17 19:16 47.540960 12.032531 133 10601ft 296kts
03-Aug-17 19:17 47.487485 12.118177 152 9246ft 272kts
03-Aug-17 19:18 47.439388 12.062147 257 9118ft 278kts
03-Aug-17 19:19 47.425011 11.956079 259 9105ft 266kts
03-Aug-17 19:20 47.418795 11.847823 264 9099ft 266kts
03-Aug-17 19:21 47.409659 11.742360 262 9101ft 266kts
03-Aug-17 19:22 47.400973 11.644451 262 9100ft 266kts
03-Aug-17 19:23 47.391412 11.537012 262 9100ft 266kts
03-Aug-17 19:24 47.381879 11.430245 262 9100ft 266kts
03-Aug-17 19:25 47.372560 11.326234 262 9101ft 266kts
03-Aug-17 19:26 47.362876 11.218757 262 9101ft 266kts
03-Aug-17 19:27 47.353223 11.111983 262 9101ft 266kts
03-Aug-17 19:28 47.343496 11.004655 262 9094ft 264kts
03-Aug-17 19:29 47.293668 10.960709 144 8383ft 277kts
03-Aug-17 19:30 47.284018 11.068400 83 8417ft 282kts
03-Aug-17 19:31 47.292302 11.180327 87 8333ft 255kts
03-Aug-17 19:32 47.264922 11.253538 172 7251ft 198kts
03-Aug-17 19:33 47.255118 11.203109 337 5412ft 186kts
03-Aug-17 19:34 47.272709 11.248532 121 4033ft 158kts
03-Aug-17 19:35 47.255452 11.303049 79 2462ft 152kts
03-Aug-17 19:36 47.260710 11.348832 81 1901ft 47kts
03-Aug-17 19:37 47.258899 11.351809 261 1897ft 12kts
03-Aug-17 19:39 47.274266 11.244833 120 4062ft 162kts
03-Aug-17 19:40 47.255741 11.290210 101 2833ft 152kts
03-Aug-17 19:41 47.257991 11.323851 81 2072ft 140kts
03-Aug-17 19:44 47.260000 11.342274 79 1906ft 89kts
03-Aug-17 19:45 47.259040 11.352693 236 1897ft 12kts
03-Aug-17 19:46 47.258141 11.325293 80 2050ft 139kts
03-Aug-17 19:47 47.257188 11.315494 81 2205ft 146kts
03-Aug-17 19:48 47.260508 11.346982 80 1901ft 49kts
03-Aug-17 19:49 47.259655 11.339032 80 1915ft 118kts

Navigation Log

Ident Type
Flight plan parsing failed, navigation log unavailable